Flight Track Log - Related Links

Times and Time Zones

All times are in EDT time to prevent confusion due to time zone crossing. See the EGF3796 flight status page for this flight to view local times or setup timezone preferences in your user account.

Time Position Orientation Groundspeed Altitude Reporting Facility
EDT Latitude Longitude Course Direction KTS MPH feet Rate Location/Type
Fri 06:35:54 PM 41.9500 -87.9167 194° South 149 171 2,100  Level Chicago TRACON
Fri 06:36:54 PM 41.9000 -87.9500 206° Southwest 204 235 4,100 1,232 Climbing Chicago TRACON
Fri 06:38:00 PM 41.6941 -88.0311 203° Southwest  Level FlightAware Approximate
Fri 06:38:25 PM 41.8144 -88.0058 206° Southwest 232 267 5,200  Level Chicago Center
Fri 06:39:00 PM 41.6013 -88.0826 203° Southwest  Level FlightAware Approximate
Fri 06:39:27 PM 41.7469 -88.0108 183° South 245 282 8,300  Level Chicago Center
Fri 06:40:00 PM 41.5051 -88.1213 197° South  Level FlightAware Approximate
Fri 06:40:29 PM 41.6814 -88.0439 201° Southwest 253 291 10,800  Level Chicago Center
Fri 06:41:00 PM 41.4086 -88.1582 194° South  Level FlightAware Approximate
Fri 06:41:31 PM 41.6089 -88.0792 200° South 276 318 12,800  Level Chicago Center
Fri 06:42:33 PM 41.5261 -88.1208 201° Southwest 316 364 14,100 1,210 Climbing Chicago Center
Fri 06:43:35 PM 41.4114 -88.1772 200° South 380 437 15,300 1,306 Climbing Chicago Center
Fri 06:44:37 PM 41.3072 -88.2242 199° South 404 465 16,800 1,548 Climbing Chicago Center
Fri 06:45:39 PM 41.1992 -88.2733 199° South 413 475 18,500 1,790 Climbing Chicago Center
Fri 06:46:41 PM 41.0914 -88.3219 199° South 412 474 20,500 1,790 Climbing Chicago Center
Fri 06:47:43 PM 40.9611 -88.3786 198° South 413 475 22,200 1,355 Climbing Chicago Center
Fri 06:48:45 PM 40.8492 -88.4297 199° South 425 489 23,300 1,016 Climbing Chicago Center
Fri 06:49:47 PM 40.7342 -88.4819 199° South 437 503 24,300 919 Climbing Chicago Center
Fri 06:50:49 PM 40.6150 -88.5347 199° South 449 517 25,200 960 Climbing Chicago Center
Fri 06:51:52 PM 40.4975 -88.5861 198° South 449 517 26,300 1,104 Climbing Chicago Center
Fri 06:52:54 PM 40.3531 -88.6500 199° South 454 522 27,500 1,306 Climbing Chicago Center
Fri 06:53:56 PM 40.2578 -88.7414 216° Southwest 428 493 29,000 1,355 Climbing Chicago Center
Fri 06:54:58 PM 40.1767 -88.8467 225° Southwest 411 473 30,300 1,222 Climbing Chicago Center
Fri 06:55:44 PM 40.1108 -88.9275 223° Southwest 404 465 31,200 1,036 Climbing Kansas City Center
Fri 06:56:48 PM 40.0311 -89.0297 224° Southwest 400 460 32,200 960 Climbing Kansas City Center
Fri 06:57:49 PM 39.9519 -89.1283 224° Southwest 396 456 33,200 885 Climbing Kansas City Center
Fri 06:58:50 PM 39.8744 -89.2283 225° Southwest 392 451 34,000 768 Climbing Kansas City Center
Fri 06:59:54 PM 39.7964 -89.3258 224° Southwest 389 448 34,800 768 Climbing Kansas City Center
Fri 07:00:55 PM 39.7186 -89.4222 224° Southwest 386 444 35,600 581 Climbing Kansas City Center
Fri 07:01:58 PM 39.6333 -89.5311 225° Southwest 381 438 36,000 194 Climbing Kansas City Center
Fri 07:02:59 PM 39.5569 -89.6247 223° Southwest 380 437 36,000  Level Kansas City Center
Fri 07:03:59 PM 39.4808 -89.7203 224° Southwest 381 438 36,000  Level Kansas City Center
Fri 07:05:03 PM 39.4053 -89.8133 224° Southwest 378 435 36,000  Level Kansas City Center
Fri 07:06:03 PM 39.3294 -89.9069 224° Southwest 378 435 36,000  Level Kansas City Center
Fri 07:07:05 PM 39.2389 -90.0194 224° Southwest 379 436 36,000  Level Kansas City Center
Fri 07:08:08 PM 39.1614 -90.1147 224° Southwest 383 441 36,000  Level Kansas City Center
Fri 07:09:09 PM 39.0836 -90.2111 224° Southwest 388 447 36,000  Level Kansas City Center
Fri 07:10:12 PM 39.0053 -90.3075 224° Southwest 391 450 36,000  Level Kansas City Center
Fri 07:11:13 PM 38.9186 -90.4133 224° Southwest 390 449 36,000  Level Kansas City Center
Fri 07:12:17 PM 38.8400 -90.5119 224° Southwest 388 447 36,000  Level Kansas City Center
Fri 07:13:18 PM 38.7681 -90.6181 229° Southwest 383 441 36,000  Level Kansas City Center
Fri 07:14:19 PM 38.6933 -90.7325 230° Southwest 391 450 36,000  Level Kansas City Center
Fri 07:15:22 PM 38.6228 -90.8378 229° Southwest 391 450 36,000  Level Kansas City Center
Fri 07:16:23 PM 38.5483 -90.9483 229° Southwest 405 466 36,000  Level Kansas City Center
Fri 07:17:23 PM 38.4608 -91.0781 229° Southwest 405 466 36,000  Level Kansas City Center
Fri 07:18:25 PM 38.3881 -91.1850 229° Southwest 403 464 36,000  Level Kansas City Center
Fri 07:19:28 PM 38.3150 -91.2925 229° Southwest 402 463 36,000  Level Kansas City Center
Fri 07:20:29 PM 38.2400 -91.3997 228° Southwest 398 458 36,000  Level Kansas City Center
Fri 07:21:32 PM 38.1769 -91.5167 236° Southwest 405 466 36,000  Level Kansas City Center
Fri 07:22:32 PM 38.1233 -91.6414 241° Southwest 401 461 36,000  Level Kansas City Center
Fri 07:23:34 PM 38.0672 -91.7647 240° Southwest 401 461 36,000  Level Kansas City Center
Fri 07:24:37 PM 38.0133 -91.8892 241° Southwest 401 461 36,000  Level Kansas City Center
Fri 07:25:38 PM 37.9583 -92.0125 241° Southwest 401 461 36,000  Level Kansas City Center
Fri 07:26:41 PM 37.8958 -92.1539 241° Southwest 405 466 36,000  Level Kansas City Center
Fri 07:27:41 PM 37.8375 -92.2750 239° Southwest 412 474 36,000 -98 Level Kansas City Center
Fri 07:28:44 PM 37.7819 -92.4011 241° Southwest 412 474 35,800 -1,113 Descending Kansas City Center
Fri 07:29:45 PM 37.7286 -92.5231 241° Southwest 404 465 33,700 -2,262 Descending Kansas City Center
Fri 07:30:46 PM 37.6747 -92.6422 240° Southwest 393 452 31,200 -2,855 Descending Kansas City Center
Fri 07:31:49 PM 37.6075 -92.7872 240° Southwest 407 468 27,800 -2,661 Descending Kansas City Center
Fri 07:32:50 PM 37.5525 -92.9061 240° Southwest 397 457 25,700 -2,430 Descending Kansas City Center
Fri 07:33:50 PM 37.4972 -93.0253 240° Southwest 393 452 22,900 -2,780 Descending Kansas City Center
Fri 07:34:53 PM 37.4447 -93.1408 240° Southwest 383 441 20,000 -2,640 Descending Kansas City Center
Fri 07:35:55 PM 37.4108 -93.2617 251° West 368 423 17,400 -1,935 Descending Kansas City Center
Fri 07:36:57 PM 37.3650 -93.3647 241° Southwest 345 397 16,000 -2,098 Descending Kansas City Center
Fri 07:37:58 PM 37.2989 -93.4486 225° Southwest 347 399 13,100 -2,607 Descending Kansas City Center
Fri 07:38:59 PM 37.2000 -93.5181 209° Southwest 344 396 10,700 -1,525 Descending Kansas City Center
Fri 07:40:00 PM 37.1239 -93.5847 215° Southwest 336 387 10,000 -384 Descending Kansas City Center
Fri 07:41:04 PM 37.0489 -93.6494 215° Southwest 329 379 9,900 -48 Descending Kansas City Center
Fri 07:42:04 PM 36.9714 -93.7156 214° Southwest 332 382 9,900  Level Kansas City Center
Fri 07:43:07 PM 36.8986 -93.7789 215° Southwest 335 386 9,900  Level Kansas City Center
Fri 07:44:08 PM 36.8014 -93.7886 185° South 349 402 9,900 49 Level Kansas City Center
Fri 07:45:10 PM 36.7125 -93.8222 197° South 352 405 10,000 -146 Climbing Kansas City Center
Fri 07:46:11 PM 36.6631 -93.9217 238° Southwest 288 331 9,600 -787 Descending Kansas City Center
Fri 07:47:12 PM 36.6344 -93.9989 245° Southwest 255 293 8,400 -1,525 Descending Kansas City Center
Fri 07:48:13 PM 36.6047 -94.0753 244° Southwest 248 285 6,500 -1,392 Descending Kansas City Center
Fri 07:49:17 PM 36.5817 -94.1367 245° Southwest 218 251 5,500 -816 Descending Kansas City Center
Fri 07:50:18 PM 36.5611 -94.1928 245° Southwest 191 220 4,800 -344 Descending Kansas City Center
Fri 07:51:19 PM 36.5403 -94.2481 245° Southwest 180 207 4,800 -595 Level Kansas City Center
Fri 07:52:19 PM 36.5186 -94.3042 244° Southwest 179 206 3,600 -919 Descending Kansas City Center
Fri 07:53:23 PM 36.4975 -94.3639 246° West 183 211 2,900 -339 Descending Kansas City Center
Fri 07:54:23 PM 36.4558 -94.3844 202° Southwest 190 219 2,900 -50 Level Kansas City Center
Fri 07:55:24 PM 36.3986 -94.3633 163° South 183 211 2,800 -98 Descending Kansas City Center

Login

Don't have an account? Register now (free) for customized features, flight alerts, and more!